Terminal Aerodrome Forecast
Issued by NWS Corpus Christi, TX

Home | Current Version | Previous Version | Text Only | Print | Product List | Glossary On
Versions: 1 2 3 4 5 6 7 8 9 10 11 12 13 14 15 16
000
FTUS44 KCRP 282300
TAFCRP
TAF
KCRP 282337Z 2900/2924 16011KT P6SM FEW020
     FM291000 18006KT P6SM SCT015
      TEMPO 2913/2915 BKN015
     FM291500 18016G22KT P6SM SCT025
     FM291800 16020G28KT P6SM SCT035=

USA.gov is the U.S. government's official web portal to all federal, state and local government web resources and services.